createdAt,value
2023-05-21T00:00:45.696Z,73.05
2023-05-21T00:03:33.994Z,73.15
2023-05-21T00:06:03.697Z,73.22
2023-05-21T00:08:31.665Z,72.46
2023-05-21T00:10:59.484Z,73.34
2023-05-21T00:13:27.163Z,73.35
2023-05-21T00:15:54.904Z,73.58
2023-05-21T00:18:22.603Z,72.87
2023-05-21T00:20:50.313Z,73.83
2023-05-21T00:23:18.672Z,73.93
2023-05-21T00:25:46.907Z,74.13
2023-05-21T00:28:14.686Z,74.45
2023-05-21T00:30:43.144Z,74.07
2023-05-21T00:33:13.932Z,74.46
2023-05-21T00:35:41.837Z,74.17
2023-05-21T00:38:10.193Z,75.17
2023-05-21T00:40:41.192Z,75.16
2023-05-21T00:43:10.787Z,74.30
2023-05-21T00:45:38.657Z,74.84
2023-05-21T00:48:06.974Z,75.03
2023-05-21T00:50:36.217Z,74.79
2023-05-21T00:53:04.922Z,75.11
2023-05-21T00:55:33.156Z,75.22
2023-05-21T00:58:01.185Z,75.62
2023-05-21T01:00:28.998Z,76.34
2023-05-21T01:02:56.842Z,76.14
2023-05-21T01:05:24.647Z,75.91
2023-05-21T01:07:52.720Z,76.11
2023-05-21T01:10:20.605Z,75.97
2023-05-21T01:12:49.582Z,76.14
2023-05-21T01:15:17.400Z,76.42
2023-05-21T01:17:48.854Z,76.57
2023-05-21T01:20:19.141Z,75.87
2023-05-21T01:22:56.603Z,76.28
2023-05-21T01:25:25.043Z,76.30
2023-05-21T01:27:52.822Z,76.70
2023-05-21T01:30:23.872Z,76.62
2023-05-21T01:33:04.029Z,76.96
2023-05-21T01:35:41.860Z,77.29
2023-05-21T01:38:22.583Z,76.44
2023-05-21T01:40:58.853Z,76.25
2023-05-21T01:43:29.557Z,76.56
2023-05-21T01:45:59.045Z,76.40
2023-05-21T01:48:29.156Z,76.20
2023-05-21T01:51:02.021Z,77.02
2023-05-21T01:53:29.857Z,77.20
2023-05-21T01:55:59.429Z,76.87
2023-05-21T01:58:27.167Z,76.18
2023-05-21T02:00:55.667Z,77.27
2023-05-21T02:03:27.286Z,77.15
2023-05-21T02:05:55.767Z,77.21
2023-05-21T02:08:23.697Z,77.08
2023-05-21T02:10:51.662Z,76.84
2023-05-21T02:13:25.196Z,76.79
2023-05-21T02:15:55.004Z,77.35
2023-05-21T02:18:23.215Z,77.60
2023-05-21T02:20:50.967Z,77.09
2023-05-21T02:23:18.721Z,77.06
2023-05-21T02:25:46.575Z,77.47
2023-05-21T02:28:14.332Z,77.63
2023-05-21T02:30:42.065Z,77.60
2023-05-21T02:33:09.923Z,77.91
2023-05-21T02:35:37.925Z,77.25
2023-05-21T02:38:05.990Z,77.46
2023-05-21T02:40:33.704Z,77.52
2023-05-21T02:43:01.466Z,77.93
2023-05-21T02:45:30.595Z,77.93
2023-05-21T02:47:58.442Z,77.94
2023-05-21T02:50:26.137Z,78.00
2023-05-21T02:52:53.833Z,77.72
2023-05-21T02:55:22.762Z,77.75
2023-05-21T02:57:50.550Z,78.11
2023-05-21T03:00:18.235Z,77.95
2023-05-21T03:02:46.151Z,77.93
2023-05-21T03:05:14.258Z,78.22
2023-05-21T03:07:42.486Z,78.12
2023-05-21T03:10:10.707Z,77.75
2023-05-21T03:12:38.447Z,77.95
2023-05-21T03:15:06.574Z,77.98
2023-05-21T03:17:34.286Z,77.66
2023-05-21T03:20:02.256Z,78.11
2023-05-21T03:22:29.971Z,78.27
2023-05-21T03:24:58.320Z,78.46
2023-05-21T03:27:26.193Z,78.31
2023-05-21T03:29:55.948Z,78.23
2023-05-21T03:32:24.070Z,78.04
2023-05-21T03:34:51.953Z,78.40
2023-05-21T03:37:19.710Z,78.31
2023-05-21T03:39:47.426Z,78.14
2023-05-21T03:42:15.113Z,77.76
2023-05-21T03:44:42.868Z,77.74
2023-05-21T03:47:10.568Z,78.16
2023-05-21T03:49:38.343Z,78.04
2023-05-21T03:52:06.272Z,77.66
2023-05-21T03:54:33.969Z,77.96
2023-05-21T03:57:01.674Z,77.77
2023-05-21T03:59:29.433Z,77.77
2023-05-21T04:01:57.160Z,77.69
2023-05-21T04:04:24.927Z,78.00
2023-05-21T04:06:54.318Z,77.85
2023-05-21T04:09:22.246Z,77.60
2023-05-21T04:11:49.927Z,77.50
2023-05-21T04:14:17.633Z,77.45
2023-05-21T04:16:45.418Z,77.41
2023-05-21T04:19:13.196Z,77.41
2023-05-21T04:21:41.030Z,77.10
2023-05-21T04:24:08.710Z,77.36
2023-05-21T04:26:36.375Z,77.47
2023-05-21T04:29:05.068Z,77.36
2023-05-21T04:31:33.064Z,77.12
2023-05-21T04:34:00.788Z,76.74
2023-05-21T04:36:29.112Z,76.90
2023-05-21T04:38:56.850Z,76.88
2023-05-21T04:41:24.564Z,76.76
2023-05-21T04:43:55.427Z,76.61
2023-05-21T04:46:26.053Z,76.55
2023-05-21T04:48:55.370Z,76.35
2023-05-21T04:51:24.949Z,76.14
2023-05-21T04:53:53.968Z,76.26
2023-05-21T04:56:27.834Z,76.58
2023-05-21T04:58:55.859Z,76.29
2023-05-21T05:01:23.862Z,75.72
2023-05-21T05:03:51.835Z,75.99
2023-05-21T05:06:19.564Z,75.87
2023-05-21T05:08:47.290Z,75.74
2023-05-21T05:11:15.017Z,75.47
2023-05-21T05:13:42.976Z,75.43
2023-05-21T05:16:11.372Z,75.19
2023-05-21T05:18:39.123Z,75.14
2023-05-21T05:21:06.875Z,75.03
2023-05-21T05:23:34.709Z,74.87
2023-05-21T05:26:02.808Z,72.97
2023-05-21T05:28:30.579Z,74.13
2023-05-21T05:30:58.285Z,74.02
2023-05-21T05:33:26.041Z,73.88
2023-05-21T05:35:54.173Z,73.89
2023-05-21T05:38:22.227Z,73.63
2023-05-21T05:40:50.067Z,73.48
2023-05-21T05:43:17.943Z,72.94
2023-05-21T05:45:45.692Z,72.50
2023-05-21T05:48:13.407Z,73.12
2023-05-21T05:50:41.167Z,73.28
2023-05-21T05:53:08.920Z,72.80
2023-05-21T05:55:36.812Z,72.55
2023-05-21T05:58:04.964Z,72.44
2023-05-21T06:00:38.347Z,71.71
2023-05-21T06:03:06.279Z,71.99
2023-05-21T06:05:34.089Z,72.24
2023-05-21T06:08:01.856Z,72.18
2023-05-21T06:10:29.605Z,72.12
2023-05-21T06:12:57.326Z,71.90
2023-05-21T06:15:25.055Z,71.59
2023-05-21T06:17:52.748Z,71.60
2023-05-21T06:20:20.559Z,71.59
2023-05-21T06:22:48.367Z,71.18
2023-05-21T06:25:16.406Z,71.26
2023-05-21T06:27:44.116Z,70.94
2023-05-21T06:30:12.010Z,70.64
2023-05-21T06:32:39.807Z,70.47
2023-05-21T06:35:08.988Z,70.28
2023-05-21T06:37:36.729Z,70.33
2023-05-21T06:40:05.483Z,69.68
2023-05-21T06:42:33.212Z,69.25
2023-05-21T06:45:01.979Z,69.36
2023-05-21T06:47:29.767Z,69.23
2023-05-21T06:49:57.533Z,68.55
2023-05-21T06:52:26.832Z,67.96
2023-05-21T06:54:54.551Z,68.14
2023-05-21T06:57:22.251Z,67.84
2023-05-21T06:59:49.976Z,68.04
2023-05-21T07:02:17.778Z,66.54
2023-05-21T07:04:45.601Z,66.62
2023-05-21T07:07:13.312Z,66.64
2023-05-21T07:09:41.318Z,66.49
2023-05-21T07:12:09.011Z,65.74
2023-05-21T07:14:36.708Z,65.41
2023-05-21T07:17:04.832Z,65.32
2023-05-21T07:19:32.767Z,65.34
2023-05-21T07:22:00.606Z,64.76
2023-05-21T07:24:28.280Z,64.59
2023-05-21T07:26:56.001Z,64.08
2023-05-21T07:29:23.827Z,63.64
2023-05-21T07:31:51.486Z,63.35
2023-05-21T07:34:19.304Z,62.61
2023-05-21T07:36:47.027Z,62.65
2023-05-21T07:39:14.711Z,62.06
2023-05-21T07:41:42.392Z,61.46
2023-05-21T07:44:10.538Z,60.93
2023-05-21T07:46:38.300Z,61.07
2023-05-21T07:49:06.099Z,60.57
2023-05-21T07:51:33.901Z,59.01
2023-05-21T07:54:01.602Z,59.95
2023-05-21T07:56:29.788Z,59.19
2023-05-21T07:58:57.474Z,58.73
2023-05-21T08:01:25.338Z,58.63
2023-05-21T08:03:53.230Z,58.94
2023-05-21T08:06:22.365Z,57.28
2023-05-21T08:08:50.472Z,56.71
2023-05-21T08:11:18.206Z,57.01
2023-05-21T08:13:46.159Z,56.72
2023-05-21T08:16:13.933Z,55.43
2023-05-21T08:18:41.726Z,56.33
2023-05-21T08:21:09.717Z,54.50
2023-05-21T08:23:38.403Z,55.04
2023-05-21T08:26:07.156Z,55.14
2023-05-21T08:28:39.000Z,55.11
2023-05-21T08:31:06.724Z,54.13
2023-05-21T08:33:38.554Z,54.04
2023-05-21T08:36:07.336Z,53.27
2023-05-21T08:38:36.589Z,49.76
2023-05-21T08:41:07.945Z,50.44
2023-05-21T08:43:37.212Z,51.15
2023-05-21T08:46:06.514Z,50.91
2023-05-21T08:48:34.974Z,50.27
2023-05-21T08:51:02.842Z,49.28
2023-05-21T08:53:33.220Z,48.52
2023-05-21T08:56:01.709Z,48.69
2023-05-21T08:58:32.349Z,49.52
2023-05-21T09:01:00.504Z,48.10
2023-05-21T09:03:29.438Z,47.64
2023-05-21T09:05:57.863Z,48.32
2023-05-21T09:08:35.304Z,47.72
2023-05-21T09:11:03.680Z,45.19
2023-05-21T09:13:37.428Z,45.96
2023-05-21T09:16:07.427Z,47.20
2023-05-21T09:18:35.098Z,46.81
2023-05-21T09:21:28.881Z,47.37
2023-05-21T09:23:58.599Z,45.72
2023-05-21T09:26:27.005Z,45.76
2023-05-21T09:29:00.186Z,45.78
2023-05-21T09:31:29.813Z,45.84
2023-05-21T09:33:57.631Z,44.37
2023-05-21T09:36:25.752Z,45.18
2023-05-21T09:38:53.460Z,43.58
2023-05-21T09:41:32.114Z,44.89
2023-05-21T09:44:01.648Z,44.47
2023-05-21T09:46:39.126Z,44.08
2023-05-21T09:49:06.979Z,43.12
2023-05-21T09:51:39.231Z,44.07
2023-05-21T09:54:06.916Z,44.00
2023-05-21T09:56:34.655Z,44.59
2023-05-21T09:59:06.489Z,43.48
2023-05-21T10:01:34.910Z,43.99
2023-05-21T10:04:07.775Z,43.46
2023-05-21T10:06:42.162Z,43.47
2023-05-21T10:09:11.601Z,42.29
2023-05-21T10:11:41.079Z,42.18
2023-05-21T10:14:17.259Z,42.65
2023-05-21T10:16:46.537Z,42.76
2023-05-21T10:19:16.192Z,42.57
2023-05-21T10:21:45.936Z,42.04
2023-05-21T10:24:14.044Z,42.47
2023-05-21T10:26:42.764Z,42.14
2023-05-21T10:29:11.227Z,42.13
2023-05-21T10:31:39.126Z,41.70
2023-05-21T10:34:07.923Z,41.45
2023-05-21T10:36:37.984Z,41.56
2023-05-21T10:39:07.940Z,40.91
2023-05-21T10:41:47.116Z,39.97
2023-05-21T10:44:27.236Z,40.21
2023-05-21T10:47:10.423Z,39.97
2023-05-21T10:49:58.296Z,39.52
2023-05-21T10:52:52.442Z,38.47
2023-05-21T10:55:44.395Z,37.97
2023-05-21T10:58:46.749Z,39.40
2023-05-21T11:01:16.240Z,39.49
2023-05-21T11:03:44.354Z,38.20
2023-05-21T11:06:24.020Z,36.38
2023-05-21T11:08:55.284Z,37.94
2023-05-21T11:11:43.004Z,37.09
2023-05-21T11:14:27.961Z,37.63
2023-05-21T11:16:57.087Z,37.66
2023-05-21T11:19:38.433Z,37.96
2023-05-21T11:22:30.931Z,38.17
2023-05-21T11:25:02.247Z,37.82
2023-05-21T11:27:35.995Z,38.46
2023-05-21T11:30:08.747Z,36.57
2023-05-21T11:32:47.648Z,37.68
2023-05-21T11:35:15.513Z,37.17
2023-05-21T11:37:46.130Z,37.60
2023-05-21T11:40:26.003Z,37.43
2023-05-21T11:42:56.003Z,37.40
2023-05-21T11:45:31.140Z,36.66
2023-05-21T11:48:00.224Z,37.74
2023-05-21T11:50:30.747Z,37.58
2023-05-21T11:52:59.901Z,37.61
2023-05-21T11:55:27.780Z,37.69
2023-05-21T11:57:55.870Z,37.54
2023-05-21T12:00:23.692Z,37.50
2023-05-21T12:02:53.046Z,37.25
2023-05-21T12:05:21.561Z,37.60
2023-05-21T12:07:50.506Z,35.85
2023-05-21T12:10:21.729Z,36.97
2023-05-21T12:12:54.640Z,37.39
2023-05-21T12:15:24.584Z,37.50
2023-05-21T12:18:02.282Z,37.12
2023-05-21T12:20:30.241Z,36.18
2023-05-21T12:22:59.076Z,35.89
2023-05-21T12:25:27.735Z,36.26
2023-05-21T12:27:58.228Z,36.82
2023-05-21T12:30:26.993Z,36.51
2023-05-21T12:32:58.245Z,36.45
2023-05-21T12:35:26.238Z,36.31
2023-05-21T12:37:54.245Z,36.53
2023-05-21T12:40:22.522Z,36.41
2023-05-21T12:42:51.862Z,36.43
2023-05-21T12:45:21.196Z,36.52
2023-05-21T12:47:56.461Z,36.51
2023-05-21T12:50:24.590Z,36.48
2023-05-21T12:52:58.188Z,36.34
2023-05-21T12:55:26.384Z,36.37
2023-05-21T12:58:04.531Z,35.86
2023-05-21T13:00:33.078Z,35.85
2023-05-21T13:03:01.968Z,35.23
2023-05-21T13:05:31.137Z,35.54
2023-05-21T13:07:59.103Z,36.02
2023-05-21T13:10:26.789Z,35.76
2023-05-21T13:12:54.643Z,35.86
2023-05-21T13:15:22.683Z,35.33
2023-05-21T13:17:53.074Z,35.76
2023-05-21T13:20:23.945Z,35.49
2023-05-21T13:22:52.279Z,35.38
2023-05-21T13:25:28.048Z,35.42
2023-05-21T13:27:56.257Z,35.50
2023-05-21T13:30:24.130Z,35.25
2023-05-21T13:32:52.439Z,35.19
2023-05-21T13:35:20.593Z,35.14
2023-05-21T13:37:50.412Z,35.07
2023-05-21T13:40:18.533Z,34.82
2023-05-21T13:42:48.521Z,35.05
2023-05-21T13:45:20.331Z,35.16
2023-05-21T13:47:48.616Z,35.30
2023-05-21T13:50:16.942Z,34.57
2023-05-21T13:52:46.211Z,35.06
2023-05-21T13:55:16.143Z,34.15
2023-05-21T13:57:45.032Z,34.93
2023-05-21T14:00:15.804Z,35.05
2023-05-21T14:02:44.692Z,35.08
2023-05-21T14:05:13.621Z,35.11
2023-05-21T14:07:42.279Z,35.08
2023-05-21T14:10:11.127Z,34.17
2023-05-21T14:12:39.061Z,34.69
2023-05-21T14:15:07.806Z,34.74
2023-05-21T14:17:35.812Z,34.07
2023-05-21T14:20:03.940Z,34.46
2023-05-21T14:22:31.592Z,34.16
2023-05-21T14:24:59.336Z,34.40
2023-05-21T14:27:27.759Z,34.15
2023-05-21T14:29:55.527Z,33.46
2023-05-21T14:32:23.458Z,33.29
2023-05-21T14:34:51.361Z,34.16
2023-05-21T14:37:19.179Z,34.04
2023-05-21T14:39:47.223Z,34.10
2023-05-21T14:42:15.214Z,34.10
2023-05-21T14:44:42.915Z,34.07
2023-05-21T14:47:10.990Z,34.06
2023-05-21T14:49:38.783Z,34.32
2023-05-21T14:52:06.955Z,34.24
2023-05-21T14:54:34.701Z,34.15
2023-05-21T14:57:02.450Z,33.80
2023-05-21T14:59:30.150Z,34.01
2023-05-21T15:01:58.448Z,34.02
2023-05-21T15:04:26.676Z,33.84
2023-05-21T15:06:54.499Z,33.98
2023-05-21T15:09:22.347Z,33.34
2023-05-21T15:11:54.060Z,33.45
2023-05-21T15:14:22.417Z,33.62
2023-05-21T15:16:50.199Z,33.61
2023-05-21T15:19:18.126Z,33.35
2023-05-21T15:21:46.184Z,32.85
2023-05-21T15:24:13.905Z,33.27
2023-05-21T15:26:41.562Z,33.42
2023-05-21T15:29:09.318Z,33.45
2023-05-21T15:31:37.320Z,33.65
2023-05-21T15:34:05.111Z,33.73
2023-05-21T15:36:32.780Z,33.52
2023-05-21T15:39:03.707Z,33.20
2023-05-21T15:41:39.007Z,33.47
2023-05-21T15:44:06.745Z,33.72
2023-05-21T15:46:34.581Z,33.22
2023-05-21T15:49:02.390Z,33.16
2023-05-21T15:51:30.146Z,32.89
2023-05-21T15:53:57.966Z,33.05
2023-05-21T15:56:26.725Z,31.95
2023-05-21T15:58:54.454Z,32.27
2023-05-21T16:01:22.492Z,32.43
2023-05-21T16:03:50.373Z,32.48
2023-05-21T16:06:18.472Z,31.71
2023-05-21T16:08:46.693Z,31.38
2023-05-21T16:11:14.534Z,31.65
2023-05-21T16:13:42.418Z,31.79
2023-05-21T16:16:10.255Z,31.47
2023-05-21T16:18:38.870Z,31.82
2023-05-21T16:21:06.796Z,32.05
2023-05-21T16:23:34.528Z,31.97
2023-05-21T16:26:02.383Z,31.91
2023-05-21T16:28:30.415Z,30.66
2023-05-21T16:30:58.474Z,31.57
2023-05-21T16:33:26.600Z,32.09
2023-05-21T16:35:54.515Z,31.57
2023-05-21T16:38:22.905Z,32.00
2023-05-21T16:40:50.801Z,32.10
2023-05-21T16:43:18.554Z,31.94
2023-05-21T16:45:48.908Z,32.06
2023-05-21T16:48:17.241Z,32.32
2023-05-21T16:50:46.959Z,31.96
2023-05-21T16:53:14.885Z,32.38
2023-05-21T16:55:43.390Z,32.35
2023-05-21T16:58:13.520Z,32.45
2023-05-21T17:00:41.366Z,32.28
2023-05-21T17:03:09.235Z,32.55
2023-05-21T17:05:37.410Z,32.39
2023-05-21T17:08:05.976Z,32.37
2023-05-21T17:10:34.083Z,32.51
2023-05-21T17:13:09.787Z,32.64
2023-05-21T17:15:45.988Z,32.80
2023-05-21T17:18:14.652Z,32.85
2023-05-21T17:20:43.773Z,33.08
2023-05-21T17:23:12.103Z,33.10
2023-05-21T17:25:41.093Z,33.11
2023-05-21T17:28:09.118Z,33.28
2023-05-21T17:30:37.039Z,33.64
2023-05-21T17:33:06.635Z,33.61
2023-05-21T17:35:34.912Z,33.68
2023-05-21T17:38:02.722Z,33.96
2023-05-21T17:40:30.643Z,34.31
2023-05-21T17:42:58.404Z,34.28
2023-05-21T17:45:26.273Z,34.38
2023-05-21T17:47:54.146Z,34.48
2023-05-21T17:50:22.129Z,34.76
2023-05-21T17:52:49.866Z,34.83
2023-05-21T17:55:17.687Z,35.05
2023-05-21T17:57:46.324Z,35.23
2023-05-21T18:00:14.396Z,35.51
2023-05-21T18:02:42.473Z,35.64
2023-05-21T18:05:10.848Z,35.86
2023-05-21T18:07:40.580Z,35.98
2023-05-21T18:10:08.867Z,36.14
2023-05-21T18:12:36.824Z,36.51
2023-05-21T18:15:05.366Z,36.48
2023-05-21T18:17:33.270Z,36.75
2023-05-21T18:20:01.063Z,37.23
2023-05-21T18:22:28.772Z,37.31
2023-05-21T18:24:56.491Z,37.53
2023-05-21T18:27:24.210Z,37.63
2023-05-21T18:29:52.386Z,38.09
2023-05-21T18:32:20.301Z,38.21
2023-05-21T18:34:48.530Z,38.48
2023-05-21T18:37:17.136Z,38.85
2023-05-21T18:39:44.947Z,39.77
2023-05-21T18:42:13.987Z,39.79
2023-05-21T18:44:42.243Z,39.71
2023-05-21T18:47:10.073Z,40.21
2023-05-21T18:49:38.255Z,40.34
2023-05-21T18:52:06.590Z,41.02
2023-05-21T18:54:34.392Z,40.20
2023-05-21T18:57:02.123Z,40.46
2023-05-21T18:59:31.305Z,41.94
2023-05-21T19:01:59.205Z,42.14
2023-05-21T19:04:27.556Z,42.54
2023-05-21T19:06:55.902Z,42.76
2023-05-21T19:09:23.933Z,43.35
2023-05-21T19:11:51.910Z,43.98
2023-05-21T19:14:21.039Z,43.46
2023-05-21T19:16:48.738Z,43.30
2023-05-21T19:19:16.631Z,44.85
2023-05-21T19:21:44.591Z,44.87
2023-05-21T19:24:12.418Z,45.11
2023-05-21T19:26:40.304Z,45.54
2023-05-21T19:29:09.659Z,46.25
2023-05-21T19:31:39.344Z,46.12
2023-05-21T19:34:10.858Z,45.91
2023-05-21T19:36:52.389Z,47.20
2023-05-21T19:39:21.421Z,47.05
2023-05-21T19:41:49.360Z,46.62
2023-05-21T19:44:17.455Z,46.99
2023-05-21T19:46:45.307Z,47.19
2023-05-21T19:49:14.648Z,48.12
2023-05-21T19:51:42.572Z,48.26
2023-05-21T19:54:10.789Z,48.84
2023-05-21T19:56:38.676Z,48.51
2023-05-21T19:59:06.457Z,49.40
2023-05-21T20:01:39.444Z,48.37
2023-05-21T20:04:07.683Z,48.38
2023-05-21T20:06:35.859Z,49.02
2023-05-21T20:09:07.534Z,49.73
2023-05-21T20:11:36.283Z,50.44
2023-05-21T20:14:04.538Z,50.73
2023-05-21T20:16:33.603Z,50.03
2023-05-21T20:19:02.461Z,50.63
2023-05-21T20:21:31.710Z,50.50
2023-05-21T20:23:59.678Z,50.85
2023-05-21T20:26:27.624Z,51.44
2023-05-21T20:28:55.653Z,51.23
2023-05-21T20:31:25.325Z,52.24
2023-05-21T20:33:53.955Z,51.98
2023-05-21T20:36:21.891Z,52.66
2023-05-21T20:38:49.618Z,53.15
2023-05-21T20:41:17.396Z,53.65
2023-05-21T20:43:45.876Z,53.64
2023-05-21T20:46:13.990Z,52.80
2023-05-21T20:48:42.524Z,53.05
2023-05-21T20:51:10.668Z,54.03
2023-05-21T20:53:38.404Z,53.68
2023-05-21T20:56:08.339Z,53.45
2023-05-21T20:58:36.279Z,53.73
2023-05-21T21:01:04.149Z,54.89
2023-05-21T21:03:35.010Z,55.13
2023-05-21T21:06:04.452Z,54.66
2023-05-21T21:08:34.858Z,54.62
2023-05-21T21:11:02.832Z,53.94
2023-05-21T21:13:30.831Z,55.85
2023-05-21T21:15:58.692Z,55.10
2023-05-21T21:18:26.442Z,55.00
2023-05-21T21:20:54.661Z,56.97
2023-05-21T21:23:29.261Z,56.73
2023-05-21T21:25:57.310Z,56.74
2023-05-21T21:28:25.050Z,57.27
2023-05-21T21:30:53.082Z,57.41
2023-05-21T21:33:21.253Z,58.21
2023-05-21T21:35:48.984Z,57.88
2023-05-21T21:38:16.947Z,58.52
2023-05-21T21:40:45.395Z,59.01
2023-05-21T21:43:13.240Z,58.48
2023-05-21T21:45:41.099Z,58.42
2023-05-21T21:48:09.026Z,59.41
2023-05-21T21:50:36.887Z,58.20
2023-05-21T21:53:05.971Z,58.95
2023-05-21T21:55:34.200Z,59.16
2023-05-21T21:58:02.113Z,59.49
2023-05-21T22:00:30.052Z,59.21
2023-05-21T22:02:57.877Z,59.05
2023-05-21T22:05:25.675Z,59.86
2023-05-21T22:07:53.368Z,59.83
2023-05-21T22:10:21.377Z,60.40
2023-05-21T22:12:49.085Z,60.89
2023-05-21T22:15:27.793Z,60.49
2023-05-21T22:17:58.724Z,60.37
2023-05-21T22:20:29.407Z,60.89
2023-05-21T22:22:58.059Z,60.65
2023-05-21T22:25:25.991Z,62.19
2023-05-21T22:27:53.718Z,61.81
2023-05-21T22:30:21.585Z,62.55
2023-05-21T22:32:49.540Z,62.91
2023-05-21T22:35:17.383Z,62.68
2023-05-21T22:37:48.396Z,62.05
2023-05-21T22:40:16.093Z,62.42
2023-05-21T22:42:45.358Z,61.61
2023-05-21T22:45:16.118Z,61.28
2023-05-21T22:47:44.248Z,62.40
2023-05-21T22:50:12.972Z,62.22
2023-05-21T22:52:40.958Z,62.69
2023-05-21T22:55:11.399Z,62.46
2023-05-21T22:57:39.425Z,63.36
2023-05-21T23:00:10.043Z,63.25
2023-05-21T23:02:38.069Z,64.26
2023-05-21T23:05:06.100Z,64.19
2023-05-21T23:07:33.826Z,64.05
2023-05-21T23:10:01.653Z,65.05
2023-05-21T23:12:29.713Z,65.45
2023-05-21T23:14:57.481Z,64.81
2023-05-21T23:17:25.220Z,65.89
2023-05-21T23:19:53.578Z,64.76
2023-05-21T23:22:22.082Z,65.70
2023-05-21T23:24:51.124Z,66.42
2023-05-21T23:27:18.950Z,65.14
2023-05-21T23:29:46.611Z,65.88
2023-05-21T23:32:14.352Z,65.52
2023-05-21T23:34:42.311Z,66.20
2023-05-21T23:37:10.991Z,65.83
2023-05-21T23:39:38.778Z,65.61
2023-05-21T23:42:06.863Z,65.88
2023-05-21T23:44:37.731Z,67.58
2023-05-21T23:47:05.513Z,65.85
2023-05-21T23:49:33.252Z,67.25
2023-05-21T23:52:01.767Z,68.04
2023-05-21T23:54:29.510Z,67.12
2023-05-21T23:56:57.327Z,67.77
2023-05-21T23:59:25.307Z,66.08
